This is the latest recevied weather packets stored in our database for station/object 9M2MIN-1. If no packets are shown the sender has not sent any weather packets the latest 1 day(s).
| Time | Temp. | Humidity | Pressure | Rain* | Wind** | Luminosity | Snow |
|---|---|---|---|---|---|---|---|
| 1778096852 | 31.11° C | 81% | 1006.5 hPa | - | - | - | - |
| 1778096055 | 31.11° C | 81% | 1006.5 hPa | - | - | - | - |
| 1778095952 | 31.11° C | 81% | 1006.5 hPa | - | - | - | - |
| 1778095052 | 31.11° C | 81% | 1006.7 hPa | - | - | - | - |
| 1778094152 | 31.11° C | 81% | 1006.8 hPa | - | - | - | - |
| 1778088792 | 31.67° C | 79% | 1007.7 hPa | - | - | - | - |
| 1778088751 | 31.67° C | 79% | 1007.7 hPa | - | - | - | - |
| 1778086951 | 31.67° C | 79% | 1008 hPa | - | - | - | - |
| 1778086051 | 31.67° C | 79% | 1008.4 hPa | - | - | - | - |
| 1778085151 | 31.67° C | 79% | 1008.5 hPa | - | - | - | - |
| 1778083468 | 31.67° C | 79% | 1008.6 hPa | - | - | - | - |
| 1778083350 | 31.67° C | 79% | 1008.6 hPa | - | - | - | - |
| 1778082394 | 31.67° C | 79% | 1008.6 hPa | - | - | - | - |
| 1778080695 | 31.67° C | 77% | 1008.5 hPa | - | - | - | - |
| 1778079733 | 32.22° C | 78% | 1008.5 hPa | - | - | - | - |
| 1778077832 | 32.22° C | 77% | 1008.3 hPa | - | - | - | - |
| 1778076932 | 32.22° C | 76% | 1008.2 hPa | - | - | - | - |
| 1778076032 | 32.22° C | 76% | 1008 hPa | - | - | - | - |
| 1778075132 | 32.22° C | 75% | 1007.9 hPa | - | - | - | - |
| 1778066191 | 32.78° C | 65% | 1005.9 hPa | - | - | - | - |
| 1778064460 | 33.33° C | 61% | 1005.1 hPa | - | - | - | - |
| 1778064391 | 33.33° C | 61% | 1005.1 hPa | - | - | - | - |
| 1778063491 | 33.33° C | 61% | 1004.8 hPa | - | - | - | - |
| 1778060794 | 33.33° C | 60% | 1005.1 hPa | - | - | - | - |
| 1778059894 | 33.89° C | 60% | 1005.1 hPa | - | - | - | - |
* Rain since midnight (hover to see other rain measurements)
** Current wind speed in m/s (hover to see current wind gust speed)